Flight Track Log - Related Links

Times and Time Zones

All times are in EDT time to prevent confusion due to time zone crossing. See the C-GCRO flight status page for this flight to view local times or setup timezone preferences in your user account.


Time Position Orientation Groundspeed Altitude Reporting Facility
EDT Latitude Longitude Course Direction KTS MPH feet Rate Location/Type
Sat 11:25:10 AM 38.5717 -82.9328 North 115 132 5,500  Level Indianapolis Center
Sat 11:26:12 AM 38.6028 -82.9314 North 112 129 5,600 49 Climbing Indianapolis Center
Sat 11:27:13 AM 38.6344 -82.9272 North 113 130 5,600 -49 Level Indianapolis Center
Sat 11:28:15 AM 38.6614 -82.9219 North 109 125 5,500  Descending Indianapolis Center
Sat 11:29:16 AM 38.6922 -82.9197 North 110 127 5,600 49 Climbing Indianapolis Center
Sat 11:30:18 AM 38.7233 -82.9203 359° North 112 129 5,600  Level Indianapolis Center
Sat 11:31:19 AM 38.7603 -82.9275 351° North 113 130 5,600  Level Indianapolis Center
Sat 11:32:20 AM 38.7908 -82.9239 North 110 127 5,600 -49 Level Indianapolis Center
Sat 11:33:22 AM 38.8228 -82.9175 North 115 132 5,500  Descending Indianapolis Center
Sat 11:34:23 AM 38.8536 -82.9100 11° North 113 130 5,600  Climbing Indianapolis Center
Sat 11:35:25 AM 38.8836 -82.9017 12° North 110 127 5,500 -49 Descending Indianapolis Center
Sat 11:36:26 AM 38.9139 -82.8900 17° North 112 129 5,500 49 Level Indianapolis Center
Sat 11:37:28 AM 38.9447 -82.8847 North 111 128 5,600 49 Climbing Indianapolis Center
Sat 11:38:29 AM 38.9761 -82.8828 North 113 130 5,600  Level Indianapolis Center
Sat 11:39:30 AM 39.0069 -82.8858 356° North 111 128 5,600 -49 Level Indianapolis Center
Sat 11:40:32 AM 39.0397 -82.8850 North 116 133 5,500 -98 Descending Indianapolis Center
Sat 11:41:33 AM 39.0772 -82.8769 North 113 130 5,400  Descending Indianapolis Center
Sat 11:42:34 AM 39.1078 -82.8706 North 112 129 5,500 49 Climbing Indianapolis Center
Sat 11:43:36 AM 39.1394 -82.8636 10° North 114 131 5,500 49 Level Indianapolis Center
Sat 11:44:37 AM 39.1703 -82.8550 12° North 113 130 5,600 49 Climbing Indianapolis Center
Sat 11:45:39 AM 39.2025 -82.8536 North 115 132 5,600 49 Level Indianapolis Center
Sat 11:46:40 AM 39.2344 -82.8528 North 114 131 5,700 49 Climbing Indianapolis Center
Sat 11:47:41 AM 39.2678 -82.8531 360° North 117 135 5,700 -49 Level Indianapolis Center
Sat 11:48:43 AM 39.3006 -82.8517 North 117 135 5,600 -128 Descending Indianapolis Center
Sat 11:49:15 AM 39.3158 -82.8517 360° North 116 133 5,500  Descending Indianapolis Center
Sat 11:49:39 AM 39.3328 -82.8481 North 116 133 5,600 67 Climbing Indianapolis Center
Sat 11:50:45 AM 39.3647 -82.8397 11° North 115 132 5,600  Level Indianapolis Center
Sat 11:51:47 AM 39.3956 -82.8258 19° North 115 132 5,600  Level Indianapolis Center
Sat 11:52:48 AM 39.4333 -82.8214 North 116 133 5,600  Level Indianapolis Center
Sat 11:53:06 AM 39.4433 -82.8228 354° North 115 132 5,600 -197 Level Indianapolis Center
Sat 11:53:49 AM 39.4664 -82.8225 North 117 135 5,400 57 Descending Indianapolis Center
Sat 11:54:51 AM 39.4992 -82.8186 North 117 135 5,700 152 Climbing Indianapolis Center
Sat 11:55:08 AM 39.5083 -82.8192 357° North 114 131 5,600  Descending Indianapolis Center
Sat 11:55:52 AM 39.5306 -82.8231 352° North 114 131 5,700  Climbing Indianapolis Center
Sat 11:57:10 AM 39.5764 -82.8375 346° North 125 144 5,600 -49 Descending Indianapolis Center
Sat 11:57:55 AM 39.5981 -82.8342 North 120 138 5,600 -98 Level Indianapolis Center
Sat 11:58:11 AM 39.6081 -82.8331 North 120 138 5,500  Descending Indianapolis Center
Sat 11:58:56 AM 39.6303 -82.8269 12° North 117 135 5,600 98 Climbing Indianapolis Center
Sat 11:59:12 AM 39.6419 -82.8261 North 120 138 5,600  Level Indianapolis Center
Sat 11:59:57 AM 39.6639 -82.8200 12° North 119 137 5,600 -100 Level Indianapolis Center
Sat 12:00:12 PM 39.6739 -82.8186 North 118 136 5,500 -86 Descending Indianapolis Center
Sat 12:01:07 PM 39.7036 -82.8111 11° North 118 136 5,500 56 Level Indianapolis Center
Sat 12:02:00 PM 39.7281 -82.8019 16° North 117 135 5,600  Climbing Indianapolis Center
Sat 12:03:01 PM 39.7608 -82.7933 11° North 118 136 5,500 -49 Descending Indianapolis Center
Sat 12:04:02 PM 39.7944 -82.7875 North 120 138 5,500  Level Indianapolis Center
Sat 12:05:05 PM 39.8331 -82.7850 North 120 138 5,500  Level Indianapolis Center
Sat 12:06:05 PM 39.8603 -82.7769 13° North 119 137 5,500  Level Indianapolis Center
Sat 12:07:01 PM 39.8947 -82.7703 North 116 133 5,500 51 Level Indianapolis Center
Sat 12:08:02 PM 39.9283 -82.7686 North 117 135 5,600  Climbing Indianapolis Center
Sat 12:08:57 PM 39.9597 -82.7694 359° North 123 142 5,500 -52 Descending Indianapolis Center
Sat 12:09:57 PM 39.9928 -82.7731 355° North 123 142 5,500 50 Level Indianapolis Center
Sat 12:10:58 PM 40.0283 -82.7742 359° North 125 144 5,600 49 Climbing Indianapolis Center
Sat 12:11:59 PM 40.0636 -82.7783 355° North 123 142 5,600 -49 Level Indianapolis Center
Sat 12:13:00 PM 40.0994 -82.7742 North 123 142 5,500 47 Descending Indianapolis Center
Sat 12:14:07 PM 40.1350 -82.7753 359° North 123 142 5,700 47 Climbing Indianapolis Center
Sat 12:15:08 PM 40.1725 -82.7794 355° North 124 143 5,600 -47 Descending Indianapolis Center
Sat 12:16:15 PM 40.2083 -82.7753 North 122 140 5,600  Level Indianapolis Center
Sat 12:17:19 PM 40.2425 -82.7706 North 121 139 5,600  Level Indianapolis Center
Sat 12:18:21 PM 40.2811 -82.7661 North 121 139 5,600 -48 Level Indianapolis Center
Sat 12:19:24 PM 40.3178 -82.7658 360° North 127 146 5,500 -49 Descending Indianapolis Center
Sat 12:20:23 PM 40.3511 -82.7567 12° North 124 143 5,500 50 Level Indianapolis Center
Sat 12:21:24 PM 40.3847 -82.7519 North 121 139 5,600 49 Climbing Indianapolis Center
Sat 12:22:26 PM 40.4186 -82.7464 North 122 140 5,600 51 Level Indianapolis Center
Sat 12:23:21 PM 40.4508 -82.7453 North 119 137 5,700  Climbing Indianapolis Center
Sat 12:24:28 PM 40.4844 -82.7319 17° North 121 139 5,600 -93 Descending Indianapolis Center
Sat 12:25:30 PM 40.5175 -82.7242 10° North 120 138 5,500  Descending Indianapolis Center
Sat 12:26:31 PM 40.5508 -82.7258 358° North 119 137 5,600  Climbing Indianapolis Center
Sat 12:27:32 PM 40.5853 -82.7297 355° North 121 139 5,500  Descending Indianapolis Center
Sat 12:28:34 PM 40.6194 -82.7311 358° North 122 140 5,600 49 Climbing Indianapolis Center
Sat 12:29:35 PM 40.6536 -82.7294 North 123 142 5,600  Level Indianapolis Center
Sat 12:30:36 PM 40.6886 -82.7292 360° North 124 143 5,600  Level Indianapolis Center
Sat 12:31:38 PM 40.7275 -82.7294 360° North 121 139 5,600  Level Indianapolis Center
Sat 12:32:39 PM 40.7619 -82.7303 359° North 122 140 5,600 49 Level Indianapolis Center
Sat 12:33:40 PM 40.7964 -82.7311 359° North 123 142 5,700  Climbing Indianapolis Center
Sat 12:34:42 PM 40.8303 -82.7297 North 122 140 5,600  Descending Indianapolis Center
Sat 12:35:43 PM 40.8644 -82.7272 North 121 139 5,700 49 Climbing Indianapolis Center
Sat 12:36:44 PM 40.8972 -82.7242 North 119 137 5,700 -49 Level Indianapolis Center
Sat 12:37:46 PM 40.9319 -82.7233 North 122 140 5,600  Descending Indianapolis Center
Sat 12:38:47 PM 40.9658 -82.7250 358° North 122 140 5,700 49 Climbing Indianapolis Center
Sat 12:39:48 PM 41.0000 -82.7286 355° North 122 140 5,700  Level Indianapolis Center
Sat 12:40:50 PM 41.0342 -82.7317 356° North 123 142 5,700  Level Indianapolis Center
Sat 12:41:51 PM 41.0675 -82.7358 355° North 121 139 5,700 -49 Level Indianapolis Center
Sat 12:42:53 PM 41.1017 -82.7400 355° North 121 139 5,600  Descending Indianapolis Center
Sat 12:43:54 PM 41.1356 -82.7400 360° North 121 139 5,700 49 Climbing Indianapolis Center
Sat 12:44:55 PM 41.1750 -82.7358 North 121 139 5,700  Level Indianapolis Center
Sat 12:45:21 PM 41.1872 -82.7381 352° North 119 137 5,700 -57 Level Cleveland Center
Sat 12:46:40 PM 41.2331 -82.7367 North 120 138 5,600  Descending Cleveland Center
Sat 12:47:41 PM 41.2642 -82.7350 North 120 138 5,700  Climbing Cleveland Center
Sat 12:48:29 PM 41.2914 -82.7358 359° North 120 138 5,600 -58 Descending Cleveland Center
Sat 12:49:24 PM 41.3206 -82.7314 North 120 138 5,600 52 Level Cleveland Center
Sat 12:50:25 PM 41.3539 -82.7353 355° North 119 137 5,700  Climbing Cleveland Center
Sat 12:51:26 PM 41.3894 -82.7364 359° North 121 139 5,600 -50 Descending Cleveland Center
Sat 12:52:26 PM 41.4228 -82.7292 North 121 139 5,600  Level Cleveland Center
Sat 12:53:21 PM 41.4519 -82.7275 North 121 139 5,600 49 Level Cleveland Center
Sat 12:54:28 PM 41.4897 -82.7203 North 116 133 5,700  Climbing Cleveland Center
Sat 12:55:29 PM 41.5211 -82.7131 10° North 117 135 5,600  Descending Cleveland Center
Sat 12:56:23 PM 41.5525 -82.7058 10° North 119 137 5,700  Climbing Cleveland Center
Sat 12:57:24 PM 41.5839 -82.6986 10° North 120 138 5,600 -49 Descending Cleveland Center
Sat 12:58:25 PM 41.6153 -82.6911 10° North 117 135 5,600 47 Level Cleveland Center
Sat 12:59:32 PM 41.6550 -82.6842 North 118 136 5,700 50 Climbing Cleveland Center
Sat 01:00:26 PM 41.6825 -82.6739 16° North 116 133 5,700 -52 Level Cleveland Center
Sat 01:01:27 PM 41.7139 -82.6611 17° North 121 139 5,600 -52 Descending Cleveland Center
Sat 01:02:22 PM 41.7453 -82.6508 14° North 132 152 5,600  Level Cleveland Center
Sat 01:03:45 PM 41.7872 -82.6356 15° North 118 136 5,600  Level Cleveland Center
Sat 01:04:45 PM 41.8186 -82.6283 10° North 118 136 5,600 -50 Level Cleveland Center
Sat 01:05:45 PM 41.8503 -82.6153 17° North 118 136 5,500 -50 Descending Cleveland Center
Sat 01:06:45 PM 41.8817 -82.5994 21° North 118 136 5,500  Level Cleveland Center
Sat 01:07:45 PM 41.9111 -82.5839 21° North 113 130 5,500  Level Cleveland Center
Sat 01:08:45 PM 41.9428 -82.5653 24° Northeast 113 130 5,500 50 Level Cleveland Center
Sat 01:09:45 PM 41.9703 -82.5464 27° Northeast 113 130 5,600  Climbing Cleveland Center
Sat 01:10:45 PM 41.9997 -82.5278 25° Northeast 113 130 5,500  Descending Cleveland Center
Sat 01:11:45 PM 42.0314 -82.5119 20° North 113 130 5,600  Climbing Cleveland Center
Sat 01:12:45 PM 42.0628 -82.4989 17° North 113 130 5,500 -50 Descending Cleveland Center
Sat 01:13:45 PM 42.0944 -82.4803 24° Northeast 113 130 5,500  Level Cleveland Center
Sat 01:14:45 PM 42.1236 -82.4728 11° North 113 130 5,500  Level Cleveland Center
Sat 01:15:45 PM 42.1572 -82.4569 19° North 113 130 5,500  Level Cleveland Center
Sat 01:16:45 PM 42.1886 -82.4467 14° North 108 124 5,500 50 Level Cleveland Center
Sat 01:17:45 PM 42.2222 -82.4308 19° North 108 124 5,600 50 Climbing Cleveland Center
Sat 01:18:45 PM 42.2517 -82.4178 18° North 108 124 5,600  Level Cleveland Center
Sat 01:19:45 PM 42.2811 -82.4017 22° Northeast 108 124 5,600  Level Cleveland Center
Sat 01:20:45 PM 42.3128 -82.3831 23° Northeast 108 124 5,600 -50 Level Cleveland Center
Sat 01:21:45 PM 42.3461 -82.3728 13° North 113 130 5,500  Descending Cleveland Center
Sat 01:22:45 PM 42.3797 -82.3625 13° North 113 130 5,600 50 Climbing Cleveland Center
Sat 01:23:45 PM 42.4133 -82.3522 13° North 113 130 5,600  Level Cleveland Center
Sat 01:24:45 PM 42.4467 -82.3475 North 118 136 5,600  Level Cleveland Center
Sat 01:25:45 PM 42.4822 -82.3372 12° North 124 143 5,600  Level Cleveland Center
Sat 01:26:45 PM 42.5136 -82.3267 14° North 124 143 5,600  Level Cleveland Center
Sat 01:27:45 PM 42.5472 -82.3164 13° North 124 143 5,600  Level Cleveland Center
Sat 01:28:45 PM 42.5847 -82.3175 359° North 124 143 5,600 -50 Level Cleveland Center
Sat 01:29:45 PM 42.6181 -82.3128 North 124 143 5,500 -50 Descending Cleveland Center
Sat 01:30:45 PM 42.6517 -82.3053 North 124 143 5,500  Level Cleveland Center
Sat 01:31:45 PM 42.6872 -82.2919 15° North 124 143 5,500 50 Level Cleveland Center
Sat 01:32:45 PM 42.7206 -82.2817 13° North 124 143 5,600 50 Climbing Cleveland Center
Sat 01:33:45 PM 42.7522 -82.2628 24° Northeast 124 143 5,600  Level Cleveland Center
Sat 01:35:00 PM 42.7849 -82.2175 46° Northeast  Level FlightAware Approximate
Sat 01:42:00 PM 43.0303 -82.0724 16° North  Level FlightAware Approximate
Sat 01:43:00 PM 43.0661 -82.0583 16° North  Level FlightAware Approximate
Sat 01:44:00 PM 43.1019 -82.0441 16° North  Level FlightAware Approximate
Sat 01:45:00 PM 43.1377 -82.0299 16° North  Level FlightAware Approximate
Sat 01:46:00 PM 43.1735 -82.0157 16° North  Level FlightAware Approximate

Login

Don't have an account? Register now (free) for customized features, flight alerts, and more!